createdAt,value
2022-10-10T00:00:25.492Z,96177.59
2022-10-10T00:15:27.432Z,96163.72
2022-10-10T00:30:29.299Z,96157.69
2022-10-10T00:45:38.873Z,96154.72
2022-10-10T01:00:40.797Z,96150.00
2022-10-10T01:16:01.581Z,96140.38
2022-10-10T01:31:04.602Z,96126.84
2022-10-10T01:46:14.107Z,96127.50
2022-10-10T02:01:26.739Z,96109.88
2022-10-10T02:16:29.593Z,96114.28
2022-10-10T02:31:33.166Z,96107.09
2022-10-10T02:46:35.121Z,96113.47
2022-10-10T03:01:36.964Z,96119.66
2022-10-10T03:16:38.868Z,96115.75
2022-10-10T03:31:41.070Z,96099.09
2022-10-10T03:46:42.946Z,96099.28
2022-10-10T04:01:44.863Z,96095.69
2022-10-10T04:16:46.747Z,96096.69
2022-10-10T04:31:48.619Z,96100.72
2022-10-10T04:46:50.542Z,96098.63
2022-10-10T05:01:52.415Z,96100.22
2022-10-10T05:16:54.351Z,96114.78
2022-10-10T05:31:56.231Z,96108.41
2022-10-10T05:46:58.194Z,96104.34
2022-10-10T06:02:00.083Z,96117.41
2022-10-10T06:17:02.084Z,96120.28
2022-10-10T06:32:03.998Z,96121.09
2022-10-10T06:47:06.122Z,96134.66
2022-10-10T07:02:09.646Z,96152.66
2022-10-10T07:17:11.584Z,96150.56
2022-10-10T07:32:13.473Z,96168.00
2022-10-10T07:47:15.366Z,96171.47
2022-10-10T08:02:17.339Z,96181.78
2022-10-10T08:17:19.618Z,96189.44
2022-10-10T08:32:21.498Z,96187.47
2022-10-10T08:47:25.148Z,96178.28
2022-10-10T09:02:50.275Z,96189.03
2022-10-10T09:18:01.314Z,96188.09
2022-10-10T09:33:07.729Z,96195.88
2022-10-10T09:48:09.606Z,96205.22
2022-10-10T10:03:13.030Z,96215.41
2022-10-10T10:18:19.390Z,96232.81
2022-10-10T10:33:27.366Z,96227.72
2022-10-10T10:48:44.456Z,96231.31
2022-10-10T11:05:20.844Z,96235.59
2022-10-10T11:19:20.521Z,96218.94
2022-10-10T11:34:27.706Z,96195.88
2022-10-10T11:49:36.538Z,96197.72
2022-10-10T12:04:38.399Z,96180.16
2022-10-10T12:19:40.267Z,96180.13
2022-10-10T12:34:48.268Z,96180.09
2022-10-10T12:49:53.856Z,96168.84
2022-10-10T13:04:59.408Z,96178.81
2022-10-10T13:20:01.364Z,96173.34
2022-10-10T13:35:06.829Z,96166.28
2022-10-10T13:50:17.598Z,96176.09
2022-10-10T14:05:26.063Z,96181.47
2022-10-10T14:20:27.982Z,96185.13
2022-10-10T14:35:29.913Z,96181.25
2022-10-10T14:50:32.368Z,96196.63
2022-10-10T15:05:34.274Z,96191.75
2022-10-10T15:20:36.667Z,96201.75
2022-10-10T15:35:56.917Z,96211.78
2022-10-10T15:51:00.742Z,96219.56
2022-10-10T16:06:03.267Z,96231.75
2022-10-10T16:21:09.594Z,96232.38
2022-10-10T16:36:15.676Z,96236.69
2022-10-10T16:51:18.354Z,96259.03
2022-10-10T17:06:21.532Z,96261.88
2022-10-10T17:21:23.614Z,96259.25
2022-10-10T17:36:26.015Z,96281.88
2022-10-10T17:51:27.929Z,96286.50
2022-10-10T18:06:30.122Z,96279.47
2022-10-10T18:21:32.011Z,96277.91
2022-10-10T18:36:34.756Z,96296.78
2022-10-10T18:51:37.160Z,96311.25
2022-10-10T19:06:39.194Z,96324.09
2022-10-10T19:21:41.135Z,96322.22
2022-10-10T19:36:43.473Z,96356.72
2022-10-10T19:51:45.345Z,96327.34
2022-10-10T20:06:47.243Z,96326.41
2022-10-10T20:21:49.090Z,96375.19
2022-10-10T20:36:50.988Z,96421.19
2022-10-10T20:51:53.879Z,96422.41
2022-10-10T21:06:55.775Z,96443.97
2022-10-10T21:21:57.728Z,96456.13
2022-10-10T21:36:59.584Z,96475.88
2022-10-10T21:52:01.452Z,96487.31
2022-10-10T22:07:04.609Z,96509.72
2022-10-10T22:22:06.514Z,96528.59
2022-10-10T22:37:08.482Z,96540.50
2022-10-10T22:52:10.347Z,96547.97
2022-10-10T23:07:12.227Z,96548.97
2022-10-10T23:22:14.095Z,96553.41
2022-10-10T23:37:16.098Z,96558.63
2022-10-10T23:52:18.076Z,96564.31
